Time;durP1;ratioP1;P1;durP2;ratioP2;P2;SDS_P1;SDS_P2;PMS_P1;PMS_P2;Temp;Humidity;BMP_temperature;BMP_pressure;BME280_temperature;BME280_humidity;BME280_pressure;Samples;Min_cycle;Max_cycle;Signal;HPM_P1;HPM_P2
2022/05/21 00:02:02;;;;;;;8.00;4.43;;;24.00;54.20;;;;;;5052383;28;20939;-64
2022/05/21 00:04:31;;;;;;;10.90;4.47;;;23.90;54.70;;;;;;5054344;28;20437;-65
2022/05/21 00:06:58;;;;;;;7.50;3.73;;;23.80;55.30;;;;;;5053533;28;20527;-64
2022/05/21 00:09:27;;;;;;;12.63;3.80;;;23.70;56.10;;;;;;5054422;28;20433;-65
2022/05/21 00:11:54;;;;;;;9.67;4.20;;;23.70;56.70;;;;;;5053315;28;20436;-64
2022/05/21 00:14:21;;;;;;;9.87;5.07;;;23.60;57.60;;;;;;5053114;28;20528;-64
2022/05/21 00:16:48;;;;;;;10.00;4.60;;;23.50;58.50;;;;;;5054144;28;20449;-64
2022/05/21 00:19:15;;;;;;;7.37;3.87;;;23.40;58.90;;;;;;5053465;28;20831;-64
2022/05/21 00:21:43;;;;;;;10.73;4.97;;;23.30;59.80;;;;;;5053712;28;20536;-64
2022/05/21 00:24:10;;;;;;;8.53;4.50;;;23.20;60.90;;;;;;5053231;28;20447;-65
2022/05/21 00:26:37;;;;;;;7.93;5.10;;;23.20;61.40;;;;;;5053420;28;20620;-64
2022/05/21 00:29:04;;;;;;;7.10;4.70;;;23.10;61.70;;;;;;5053183;28;20945;-64
2022/05/21 00:31:31;;;;;;;9.40;5.50;;;23.00;62.40;;;;;;5054137;28;20439;-64
2022/05/21 00:33:58;;;;;;;7.70;5.60;;;23.00;64.10;;;;;;5052987;28;20451;-64
2022/05/21 00:36:25;;;;;;;9.67;5.30;;;22.80;64.90;;;;;;5053842;28;20523;-64
2022/05/21 00:38:53;;;;;;;10.77;5.33;;;22.80;65.30;;;;;;5053091;28;20545;-64
2022/05/21 00:41:20;;;;;;;11.50;6.10;;;22.80;65.80;;;;;;5053234;28;20538;-64
2022/05/21 00:43:50;;;;;;;8.53;7.33;;;22.70;65.90;;;;;;5052423;28;20444;-64
2022/05/21 00:46:20;;;;;;;9.23;5.30;;;22.70;67.00;;;;;;5053475;28;20650;-64
2022/05/21 00:48:54;;;;;;;9.20;4.80;;;22.60;67.70;;;;;;5052350;28;20469;-64
2022/05/21 00:51:26;;;;;;;10.53;5.30;;;22.60;67.90;;;;;;5053793;28;20843;-64
2022/05/21 00:53:56;;;;;;;7.70;5.10;;;22.50;68.40;;;;;;5052854;28;20532;-64
2022/05/21 00:56:25;;;;;;;11.43;6.17;;;22.50;69.90;;;;;;5052846;28;21137;-64
2022/05/21 01:01:43;;;;;;;6.50;5.03;;;22.40;71.10;;;;;;5052945;28;20534;-64
2022/05/21 01:04:10;;;;;;;6.57;4.13;;;22.30;70.40;;;;;;5053379;28;20525;-63
2022/05/21 01:06:37;;;;;;;6.77;4.60;;;22.30;69.90;;;;;;5052674;28;20516;-64
2022/05/21 01:09:06;;;;;;;10.47;3.90;;;22.30;69.60;;;;;;5053090;28;20445;-65
2022/05/21 01:11:34;;;;;;;15.43;4.97;;;22.20;68.90;;;;;;5052672;28;20524;-65
2022/05/21 01:14:00;;;;;;;6.83;4.53;;;22.20;69.00;;;;;;5052383;28;20435;-65
2022/05/21 01:16:29;;;;;;;8.37;4.73;;;22.10;68.60;;;;;;5052872;28;20441;-66
2022/05/21 01:18:56;;;;;;;8.20;5.17;;;22.00;68.40;;;;;;5032814;28;20442;-65
2022/05/21 01:21:24;;;;;;;8.40;4.70;;;22.00;70.00;;;;;;5033117;28;20446;-65
2022/05/21 01:23:52;;;;;;;5.93;4.03;;;22.00;70.80;;;;;;5051401;28;20448;-64
2022/05/21 01:26:22;;;;;;;8.40;4.80;;;22.00;71.20;;;;;;5050693;28;20473;-64
2022/05/21 01:28:50;;;;;;;6.37;4.80;;;22.00;72.00;;;;;;5052955;28;20535;-64
2022/05/21 01:31:17;;;;;;;7.17;5.00;;;21.90;73.40;;;;;;5051408;28;20452;-65
2022/05/21 01:33:45;;;;;;;13.37;6.10;;;21.80;75.60;;;;;;5052444;28;20525;-64
2022/05/21 01:36:14;;;;;;;5.90;4.60;;;21.70;76.30;;;;;;5051900;28;20516;-64
2022/05/21 01:38:43;;;;;;;7.43;4.73;;;21.60;73.20;;;;;;5051492;28;20457;-67
2022/05/21 01:41:11;;;;;;;9.63;5.20;;;21.60;73.20;;;;;;5052285;28;20488;-64
2022/05/21 01:46:24;;;;;;;22.67;5.23;;;21.60;72.00;;;;;;5052484;28;21010;-64
2022/05/21 01:48:52;;;;;;;7.97;5.53;;;21.60;71.50;;;;;;5051747;28;20842;-64
2022/05/21 01:51:18;;;;;;;6.93;4.50;;;21.50;71.80;;;;;;5051627;28;20448;-64
2022/05/21 01:53:46;;;;;;;7.40;4.70;;;21.50;72.90;;;;;;5051755;28;20535;-64
2022/05/21 01:56:15;;;;;;;5.70;4.20;;;21.50;73.40;;;;;;5051744;28;20907;-64
2022/05/21 01:58:43;;;;;;;7.20;5.33;;;21.40;72.80;;;;;;5052379;28;20520;-64
2022/05/21 02:01:11;;;;;;;8.87;4.33;;;21.40;72.40;;;;;;5051636;28;20477;-64
2022/05/21 02:03:38;;;;;;;7.17;4.30;;;21.30;72.10;;;;;;5052572;28;20431;-65
2022/05/21 02:06:06;;;;;;;5.70;3.90;;;21.30;72.10;;;;;;5051631;28;20445;-64
2022/05/21 02:08:33;;;;;;;5.13;3.83;;;21.30;72.00;;;;;;5052408;28;20781;-66
2022/05/21 02:11:00;;;;;;;5.90;4.30;;;21.20;73.20;;;;;;5051504;28;20498;-64
2022/05/21 02:13:31;;;;;;;6.00;4.27;;;21.20;74.20;;;;;;5052458;28;20527;-65
2022/05/21 02:15:58;;;;;;;5.10;4.00;;;21.10;75.20;;;;;;5051393;28;20912;-65
2022/05/21 02:18:25;;;;;;;6.63;4.53;;;21.00;75.90;;;;;;5051640;28;20832;-64
2022/05/21 02:20:53;;;;;;;7.50;4.37;;;21.00;76.90;;;;;;5052485;28;20487;-64
2022/05/21 02:23:20;;;;;;;5.90;4.83;;;20.80;78.00;;;;;;5051328;28;20443;-64
2022/05/21 02:25:47;;;;;;;9.03;4.30;;;20.80;78.80;;;;;;5052366;28;20837;-65
2022/05/21 02:28:15;;;;;;;5.80;5.20;;;20.70;78.20;;;;;;5051564;28;20437;-64
2022/05/21 02:30:44;;;;;;;6.77;4.83;;;20.70;79.40;;;;;;5051240;28;20449;-65
2022/05/21 02:33:11;;;;;;;8.43;4.80;;;20.60;79.30;;;;;;5051485;28;20503;-64
2022/05/21 02:35:38;;;;;;;6.27;4.83;;;20.60;80.10;;;;;;5052223;28;20443;-64
2022/05/21 02:40:49;;;;;;;6.60;4.30;;;20.50;80.10;;;;;;5052084;28;20981;-64
2022/05/21 02:43:16;;;;;;;6.00;4.13;;;20.50;80.60;;;;;;5051310;28;20886;-65
2022/05/21 02:45:44;;;;;;;5.73;4.30;;;20.40;81.30;;;;;;5050501;28;20436;-64
2022/05/21 02:48:11;;;;;;;8.00;4.70;;;20.40;81.50;;;;;;5050183;28;20555;-64
2022/05/21 02:50:39;;;;;;;5.97;3.93;;;20.30;81.60;;;;;;5053495;28;20832;-64
2022/05/21 02:53:07;;;;;;;6.87;4.23;;;20.20;80.70;;;;;;5054558;28;20748;-65
2022/05/21 02:55:35;;;;;;;7.80;4.63;;;20.20;81.70;;;;;;5055477;28;20523;-64
2022/05/21 02:58:03;;;;;;;6.20;4.63;;;20.20;81.60;;;;;;5054999;28;20439;-65
2022/05/21 03:00:32;;;;;;;5.20;3.83;;;20.10;81.80;;;;;;5055371;28;20858;-64
2022/05/21 03:03:00;;;;;;;6.67;4.40;;;20.10;81.50;;;;;;5054607;28;20436;-65
2022/05/21 03:05:29;;;;;;;8.43;4.40;;;20.00;81.30;;;;;;5055341;28;20543;-65
2022/05/21 03:07:56;;;;;;;5.73;4.10;;;20.00;81.10;;;;;;5055034;28;20433;-65
2022/05/21 03:10:25;;;;;;;5.90;3.67;;;20.00;81.80;;;;;;5055115;28;20919;-64
2022/05/21 03:12:54;;;;;;;5.50;3.57;;;20.00;82.40;;;;;;5054972;28;20490;-64
2022/05/21 03:15:22;;;;;;;7.73;4.67;;;19.90;82.00;;;;;;5055258;28;20921;-64
2022/05/21 03:17:50;;;;;;;8.10;4.33;;;19.90;82.90;;;;;;5054330;28;20769;-64
2022/05/21 03:20:20;;;;;;;6.30;4.90;;;19.90;82.90;;;;;;5055280;28;20485;-65
2022/05/21 03:22:48;;;;;;;6.20;4.33;;;19.90;83.40;;;;;;5054158;28;20472;-65
2022/05/21 03:25:16;;;;;;;5.90;4.13;;;19.80;83.00;;;;;;5055317;28;20859;-64
2022/05/21 03:27:43;;;;;;;6.70;4.40;;;19.80;82.10;;;;;;5054326;28;20520;-64
2022/05/21 03:30:14;;;;;;;5.73;4.37;;;19.80;82.90;;;;;;5054991;28;20531;-64
2022/05/21 03:32:41;;;;;;;13.17;5.17;;;19.80;83.70;;;;;;5054359;28;20437;-64
2022/05/21 03:35:10;;;;;;;5.83;4.37;;;19.70;83.80;;;;;;5055133;28;20973;-64
2022/05/21 03:37:39;;;;;;;7.00;4.40;;;19.70;84.50;;;;;;5053703;28;20955;-64
2022/05/21 03:40:09;;;;;;;5.47;4.70;;;19.70;84.60;;;;;;5054476;28;20572;-64
2022/05/21 03:42:38;;;;;;;5.30;4.80;;;19.60;84.10;;;;;;5053866;28;20894;-64
2022/05/21 03:45:06;;;;;;;15.73;4.20;;;19.50;84.90;;;;;;5054427;28;20818;-65
2022/05/21 03:47:34;;;;;;;6.57;4.50;;;19.40;85.60;;;;;;5054010;28;20547;-65
2022/05/21 03:50:01;;;;;;;6.03;4.30;;;19.30;86.40;;;;;;5054702;28;20527;-65
2022/05/21 03:52:28;;;;;;;10.37;4.67;;;19.40;87.70;;;;;;5053531;28;20448;-65
2022/05/21 03:54:56;;;;;;;6.80;5.30;;;19.40;88.50;;;;;;5054520;28;20433;-64
2022/05/21 03:57:23;;;;;;;4.77;4.10;;;19.40;88.90;;;;;;5054031;28;20437;-64
2022/05/21 03:59:50;;;;;;;9.10;6.37;;;19.30;88.00;;;;;;5054609;28;20629;-64
2022/05/21 04:02:18;;;;;;;8.60;5.43;;;19.40;89.10;;;;;;5052763;28;20520;-64
2022/05/21 04:04:45;;;;;;;7.30;4.50;;;19.30;88.60;;;;;;5054617;28;20440;-64
2022/05/21 04:07:13;;;;;;;7.53;5.83;;;19.30;89.10;;;;;;5054622;28;20939;-64
2022/05/21 04:09:40;;;;;;;7.03;4.87;;;19.30;89.20;;;;;;5054438;28;20521;-65
2022/05/21 04:12:09;;;;;;;10.07;6.30;;;19.20;89.30;;;;;;5053922;28;20533;-64
2022/05/21 04:14:37;;;;;;;12.93;6.33;;;19.20;89.70;;;;;;5054061;28;20444;-65
2022/05/21 04:17:10;;;;;;;8.30;6.00;;;19.10;90.10;;;;;;5053623;28;20479;-64
2022/05/21 04:19:39;;;;;;;8.40;4.80;;;19.10;90.60;;;;;;5053964;28;20479;-64
2022/05/21 04:22:06;;;;;;;6.93;4.90;;;19.10;90.50;;;;;;5053150;28;20808;-64
2022/05/21 04:24:34;;;;;;;6.30;4.40;;;19.10;90.80;;;;;;5054239;28;20535;-65
2022/05/21 04:27:00;;;;;;;8.10;5.17;;;19.10;90.70;;;;;;5053191;28;20434;-64
2022/05/21 04:29:29;;;;;;;7.73;5.10;;;19.10;90.80;;;;;;5054081;28;20986;-64
2022/05/21 04:31:56;;;;;;;8.07;5.43;;;19.10;90.70;;;;;;5053569;28;20434;-64
2022/05/21 04:34:22;;;;;;;6.50;4.73;;;19.10;91.00;;;;;;5054226;28;20531;-64
2022/05/21 04:36:49;;;;;;;6.70;4.67;;;19.20;91.10;;;;;;5052966;28;20441;-64
2022/05/21 04:39:16;;;;;;;5.83;3.50;;;19.10;90.70;;;;;;5053522;28;20440;-64
2022/05/21 04:41:43;;;;;;;7.73;4.90;;;19.10;90.40;;;;;;5053244;28;20483;-64
2022/05/21 04:44:10;;;;;;;5.90;4.03;;;19.20;90.80;;;;;;5053810;28;20440;-64
2022/05/21 04:46:38;;;;;;;6.00;4.30;;;19.10;90.30;;;;;;5052895;28;20441;-65
2022/05/21 04:49:05;;;;;;;6.10;4.00;;;19.00;90.30;;;;;;5053556;28;20860;-65
2022/05/21 04:51:35;;;;;;;7.60;4.33;;;18.90;90.60;;;;;;5053172;28;20437;-64
2022/05/21 04:54:03;;;;;;;8.40;4.63;;;19.00;90.90;;;;;;5053829;28;20523;-64
2022/05/21 04:56:31;;;;;;;6.10;4.40;;;19.10;90.60;;;;;;5052504;28;20441;-64
2022/05/21 04:58:58;;;;;;;6.17;4.33;;;19.10;90.70;;;;;;5052701;28;20462;-66
2022/05/21 05:01:25;;;;;;;7.07;4.23;;;19.20;90.80;;;;;;5053510;28;20484;-64
2022/05/21 05:03:53;;;;;;;5.80;4.83;;;19.20;90.50;;;;;;5052724;28;20523;-64
2022/05/21 05:06:20;;;;;;;6.43;4.53;;;19.30;90.40;;;;;;5053560;28;20445;-64
2022/05/21 05:08:47;;;;;;;6.57;4.63;;;19.30;90.20;;;;;;5052714;28;20441;-64
2022/05/21 05:11:14;;;;;;;7.67;4.57;;;19.40;90.20;;;;;;5053306;28;20935;-64
2022/05/21 05:13:41;;;;;;;7.43;4.53;;;19.40;90.20;;;;;;5051594;28;20971;-64
2022/05/21 05:16:08;;;;;;;5.70;4.03;;;19.50;90.40;;;;;;5052811;28;20437;-65
2022/05/21 05:18:35;;;;;;;5.30;4.27;;;19.60;90.50;;;;;;5034778;28;20434;-66
2022/05/21 05:21:03;;;;;;;5.50;4.33;;;19.70;90.40;;;;;;5052887;28;20477;-64
2022/05/21 05:23:30;;;;;;;6.03;4.00;;;19.80;90.80;;;;;;5052398;28;20437;-64
2022/05/21 05:25:59;;;;;;;7.33;4.40;;;19.90;90.80;;;;;;5053149;28;20444;-65
2022/05/21 05:28:28;;;;;;;6.47;5.40;;;19.90;90.40;;;;;;5051826;28;20436;-64
2022/05/21 05:30:55;;;;;;;6.80;5.37;;;20.00;90.50;;;;;;5053346;28;20536;-64
2022/05/21 05:33:23;;;;;;;6.73;5.23;;;20.00;90.40;;;;;;5051545;28;20443;-64
2022/05/21 05:35:52;;;;;;;8.40;7.07;;;20.00;90.40;;;;;;5052929;28;20490;-64
2022/05/21 05:38:24;;;;;;;8.13;5.13;;;20.10;90.70;;;;;;5051950;28;20475;-64
2022/05/21 05:40:53;;;;;;;11.03;6.47;;;20.20;90.80;;;;;;5051454;28;20475;-64
2022/05/21 05:43:21;;;;;;;9.53;6.30;;;20.20;90.70;;;;;;5052999;28;20520;-65
2022/05/21 05:45:49;;;;;;;8.60;5.00;;;20.20;90.80;;;;;;5051278;28;20429;-64
2022/05/21 05:48:16;;;;;;;9.77;5.30;;;20.20;90.90;;;;;;5052297;28;20471;-64
2022/05/21 05:50:43;;;;;;;7.27;4.70;;;20.20;90.70;;;;;;5052038;28;20525;-64
2022/05/21 05:53:10;;;;;;;7.17;4.13;;;20.30;90.20;;;;;;5052969;28;20473;-64
2022/05/21 05:55:42;;;;;;;6.27;4.70;;;20.30;90.40;;;;;;5051698;28;20447;-64
2022/05/21 06:00:50;;;;;;;6.40;3.90;;;20.30;87.60;;;;;;5051622;28;20477;-64
2022/05/21 06:03:17;;;;;;;4.87;3.70;;;20.30;85.50;;;;;;5052918;28;20515;-64
2022/05/21 06:05:44;;;;;;;4.60;3.43;;;20.30;85.60;;;;;;5051923;28;20527;-64
2022/05/21 06:08:11;;;;;;;5.67;3.53;;;20.20;84.60;;;;;;5051520;28;20520;-64
2022/05/21 06:10:43;;;;;;;4.33;3.30;;;20.20;86.30;;;;;;5052112;28;20451;-65
2022/05/21 06:13:10;;;;;;;6.17;4.10;;;20.20;85.00;;;;;;5051805;28;20792;-64
2022/05/21 06:15:38;;;;;;;4.17;3.20;;;20.20;84.30;;;;;;5052748;28;20441;-64
2022/05/21 06:18:09;;;;;;;5.17;3.30;;;20.20;82.90;;;;;;5051781;28;20515;-64
2022/05/21 06:20:37;;;;;;;6.60;3.50;;;20.30;83.10;;;;;;5052513;28;20971;-65
2022/05/21 06:23:04;;;;;;;6.73;3.17;;;20.30;80.90;;;;;;5051606;28;20437;-65
2022/05/21 06:25:33;;;;;;;5.80;4.00;;;20.30;80.30;;;;;;5051681;28;20891;-65
2022/05/21 06:28:03;;;;;;;7.20;3.33;;;20.40;79.40;;;;;;5054255;28;20437;-65
2022/05/21 06:30:31;;;;;;;4.73;3.17;;;20.60;79.20;;;;;;5054833;28;20463;-65
2022/05/21 06:32:59;;;;;;;5.47;2.70;;;20.80;79.70;;;;;;5053866;28;20429;-66
2022/05/21 06:35:27;;;;;;;4.07;2.70;;;20.90;77.00;;;;;;5054864;28;20490;-65
2022/05/21 06:37:55;;;;;;;3.77;2.60;;;21.00;75.20;;;;;;5054245;28;20444;-65
2022/05/21 06:40:22;;;;;;;5.53;2.60;;;21.10;72.40;;;;;;5053961;28;20437;-65
2022/05/21 06:42:49;;;;;;;4.30;2.37;;;21.20;71.20;;;;;;5053850;28;20435;-67
2022/05/21 06:45:17;;;;;;;3.70;2.23;;;21.20;70.40;;;;;;5054589;28;20894;-67
2022/05/21 06:47:44;;;;;;;4.30;2.63;;;21.30;69.50;;;;;;5053588;28;20467;-65
2022/05/21 06:50:12;;;;;;;4.50;1.80;;;21.30;68.40;;;;;;5052326;28;20444;-66
2022/05/21 06:52:40;;;;;;;5.10;2.97;;;21.30;67.70;;;;;;5053592;28;20527;-72
2022/05/21 06:55:09;;;;;;;3.73;2.33;;;21.20;67.90;;;;;;5054329;28;20437;-66
2022/05/21 06:57:36;;;;;;;3.50;2.40;;;21.30;69.60;;;;;;5054407;28;20531;-67
2022/05/21 07:00:04;;;;;;;3.70;2.37;;;21.40;70.80;;;;;;5053305;28;20468;-65
2022/05/21 07:02:32;;;;;;;3.93;2.83;;;21.50;71.10;;;;;;5054113;28;20539;-65
2022/05/21 07:07:47;;;;;;;3.57;2.57;;;21.80;69.50;;;;;;5053873;28;20436;-66
2022/05/21 07:10:19;;;;;;;4.77;2.50;;;21.90;68.80;;;;;;5053591;28;20850;-65
2022/05/21 07:12:46;;;;;;;2.90;1.90;;;22.00;69.40;;;;;;5048233;28;20435;-67
2022/05/21 07:15:14;;;;;;;3.63;2.50;;;22.10;67.60;;;;;;5053966;28;20435;-65
2022/05/21 07:17:44;;;;;;;4.33;2.40;;;22.30;68.20;;;;;;5053336;28;20543;-65
2022/05/21 07:20:15;;;;;;;5.23;2.53;;;22.40;67.40;;;;;;5053337;28;20523;-65
2022/05/21 07:22:42;;;;;;;3.70;2.50;;;22.50;66.60;;;;;;5052075;28;20570;-66
2022/05/21 07:25:11;;;;;;;3.73;2.53;;;22.60;65.70;;;;;;5052844;28;20429;-65
2022/05/21 07:27:38;;;;;;;4.73;3.00;;;22.60;65.00;;;;;;5053295;28;20433;-66
2022/05/21 07:30:06;;;;;;;3.67;2.50;;;22.70;65.90;;;;;;5048808;28;20468;-65
2022/05/21 07:32:33;;;;;;;3.63;2.23;;;23.00;66.50;;;;;;5052425;28;20448;-65
2022/05/21 07:35:03;;;;;;;3.83;2.53;;;23.10;63.90;;;;;;5053437;28;20969;-65
2022/05/21 07:37:31;;;;;;;6.07;2.83;;;23.20;62.80;;;;;;5052379;28;20480;-65
2022/05/21 07:39:58;;;;;;;4.27;2.40;;;23.30;63.30;;;;;;5053472;28;20527;-65
2022/05/21 07:42:25;;;;;;;4.53;2.90;;;23.40;63.50;;;;;;5053450;28;20563;-65
2022/05/21 07:44:52;;;;;;;5.33;2.50;;;23.70;62.10;;;;;;5053201;28;20432;-66
2022/05/21 07:47:22;;;;;;;3.57;2.70;;;23.90;61.60;;;;;;5053060;28;20881;-65
2022/05/21 07:49:51;;;;;;;5.10;3.10;;;23.90;59.30;;;;;;5052927;28;20458;-67
2022/05/21 07:52:20;;;;;;;7.07;2.93;;;23.90;59.30;;;;;;5049341;28;20822;-65
2022/05/21 07:54:47;;;;;;;3.17;2.47;;;23.80;59.90;;;;;;5051533;28;20514;-66
2022/05/21 07:57:14;;;;;;;4.60;2.20;;;23.90;60.30;;;;;;5052921;28;20429;-70
2022/05/21 07:59:42;;;;;;;5.37;2.40;;;24.00;59.10;;;;;;5052675;28;20433;-65
2022/05/21 08:02:13;;;;;;;3.80;2.67;;;24.10;58.00;;;;;;5053021;28;20480;-65
2022/05/21 08:04:40;;;;;;;4.13;2.10;;;24.40;57.50;;;;;;5048915;28;20873;-65
2022/05/21 08:07:07;;;;;;;3.10;2.00;;;24.60;57.50;;;;;;5052595;28;20507;-66
2022/05/21 08:09:35;;;;;;;5.10;2.67;;;24.80;57.20;;;;;;5052585;28;20807;-65
2022/05/21 08:12:03;;;;;;;7.03;2.83;;;25.00;56.60;;;;;;5052542;28;20437;-65
2022/05/21 08:14:30;;;;;;;4.10;2.90;;;25.10;56.30;;;;;;5052635;28;20469;-65
2022/05/21 08:16:57;;;;;;;3.97;2.93;;;25.20;56.50;;;;;;5052348;28;20445;-65
2022/05/21 08:19:24;;;;;;;4.90;3.00;;;25.30;53.60;;;;;;5052317;28;20442;-67
2022/05/21 08:21:51;;;;;;;7.10;3.00;;;25.30;53.30;;;;;;5052355;28;21100;-65
2022/05/21 08:27:05;;;;;;;3.20;2.40;;;25.20;53.80;;;;;;5052401;28;20428;-65
2022/05/21 08:29:34;;;;;;;4.63;2.83;;;25.20;53.30;;;;;;5052441;28;20468;-66
2022/05/21 08:32:03;;;;;;;5.20;2.60;;;25.30;52.50;;;;;;5051939;28;20432;-65
2022/05/21 08:34:30;;;;;;;3.80;2.90;;;25.30;53.10;;;;;;5052322;28;20520;-66
2022/05/21 08:36:57;;;;;;;4.43;2.73;;;25.20;52.20;;;;;;5052230;28;20519;-67
2022/05/21 08:39:24;;;;;;;7.70;3.10;;;25.20;52.20;;;;;;5052208;28;20440;-66
2022/05/21 08:41:54;;;;;;;4.90;3.03;;;25.00;51.50;;;;;;5052137;28;20484;-66
2022/05/21 08:44:35;;;;;;;6.80;2.60;;;24.80;51.50;;;;;;5052394;28;20442;-65
2022/05/21 08:47:07;;;;;;;6.50;3.13;;;24.80;52.90;;;;;;5051974;28;20447;-65
2022/05/21 08:49:36;;;;;;;3.77;2.77;;;25.00;54.00;;;;;;5052062;28;20484;-65
2022/05/21 08:52:11;;;;;;;3.70;2.50;;;25.20;54.30;;;;;;5051845;28;20433;-65
2022/05/21 08:54:43;;;;;;;4.70;3.40;;;25.40;54.20;;;;;;5048588;28;20437;-65
2022/05/21 08:57:14;;;;;;;5.60;3.23;;;25.70;54.40;;;;;;5051642;28;20437;-65
2022/05/21 08:59:48;;;;;;;5.10;3.00;;;25.80;51.80;;;;;;5051437;28;20829;-66
2022/05/21 09:02:17;;;;;;;4.53;2.73;;;25.60;48.90;;;;;;5051709;28;20512;-67
2022/05/21 09:04:45;;;;;;;3.70;3.17;;;25.60;49.90;;;;;;5051558;28;20902;-66
2022/05/21 09:07:19;;;;;;;3.60;2.70;;;25.60;49.60;;;;;;5051766;28;20442;-65
2022/05/21 09:09:57;;;;;;;3.80;2.70;;;25.60;49.80;;;;;;5051391;28;20951;-65
2022/05/21 09:12:33;;;;;;;6.80;3.20;;;25.60;49.40;;;;;;5047752;28;20446;-66
2022/05/21 09:15:04;;;;;;;5.40;3.60;;;25.60;49.30;;;;;;5051947;28;20442;-65
2022/05/21 09:17:30;;;;;;;3.63;2.90;;;25.60;50.40;;;;;;5050904;28;20444;-67
2022/05/21 09:20:00;;;;;;;3.90;3.00;;;25.50;49.60;;;;;;5051691;28;20463;-65
2022/05/21 09:22:27;;;;;;;6.50;3.70;;;25.60;51.80;;;;;;5051568;28;20477;-67
2022/05/21 09:24:56;;;;;;;3.60;2.97;;;25.60;49.30;;;;;;5051445;28;20527;-65
2022/05/21 09:27:31;;;;;;;6.60;2.80;;;25.60;48.70;;;;;;5051003;28;20428;-66
2022/05/21 09:30:17;;;;;;;3.40;2.40;;;25.40;49.90;;;;;;5050534;28;20440;-65
2022/05/21 09:32:49;;;;;;;7.80;3.97;;;25.50;50.60;;;;;;5047232;28;20952;-65
2022/05/21 09:35:18;;;;;;;6.50;3.00;;;25.50;49.60;;;;;;5050819;28;20424;-65
2022/05/21 09:37:46;;;;;;;5.33;2.60;;;25.60;49.90;;;;;;5050615;28;20435;-66
2022/05/21 09:40:34;;;;;;;4.70;2.73;;;25.70;47.50;;;;;;5050460;28;20520;-65
2022/05/21 09:45:48;;;;;;;3.33;1.90;;;25.80;44.50;;;;;;5050359;28;20423;-66
2022/05/21 09:48:22;;;;;;;6.53;2.20;;;25.60;45.60;;;;;;5049211;28;20936;-66
2022/05/21 09:50:53;;;;;;;7.03;2.40;;;25.60;46.20;;;;;;5050648;28;20493;-66
2022/05/21 09:53:27;;;;;;;8.00;2.40;;;25.80;47.00;;;;;;5050418;28;20959;-65
2022/05/21 09:56:00;;;;;;;4.50;2.57;;;25.90;47.10;;;;;;5048616;28;20964;-65
2022/05/21 09:58:33;;;;;;;6.57;3.07;;;25.90;46.90;;;;;;5050765;28;21023;-65
2022/05/21 10:01:02;;;;;;;4.20;2.80;;;25.90;47.30;;;;;;5047899;28;20437;-65
2022/05/21 10:03:43;;;;;;;4.17;2.60;;;26.00;47.60;;;;;;5050534;28;20984;-65
2022/05/21 10:06:25;;;;;;;3.93;2.60;;;26.30;49.00;;;;;;5045223;28;20777;-65
2022/05/21 10:11:53;;;;;;;8.33;2.87;;;26.60;43.90;;;;;;5048788;28;20490;-67
2022/05/21 10:14:24;;;;;;;4.20;2.80;;;26.50;46.10;;;;;;5048376;28;20896;-65
2022/05/21 10:16:57;;;;;;;6.07;2.87;;;26.70;44.30;;;;;;5048320;28;20535;-65
2022/05/21 10:19:31;;;;;;;4.23;3.27;;;26.90;45.20;;;;;;5046359;28;20523;-66
2022/05/21 10:22:11;;;;;;;5.63;3.13;;;27.00;44.80;;;;;;5051153;28;20571;-70
2022/05/21 10:24:47;;;;;;;6.07;2.90;;;27.00;44.20;;;;;;5046553;28;20762;-69
2022/05/21 10:27:23;;;;;;;4.27;2.87;;;27.10;44.90;;;;;;5048810;28;20431;-66
2022/05/21 10:30:12;;;;;;;6.30;3.10;;;27.10;43.30;;;;;;5047087;28;20497;-66
2022/05/21 10:33:12;;;;;;;3.60;2.67;;;27.20;44.20;;;;;;5047065;28;20832;-66
2022/05/21 10:35:50;;;;;;;4.10;3.00;;;27.40;44.80;;;;;;5036429;28;20484;-66
2022/05/21 10:38:28;;;;;;;3.47;2.83;;;27.70;44.20;;;;;;5048733;28;20474;-70
2022/05/21 10:40:59;;;;;;;5.00;2.90;;;27.80;44.20;;;;;;5050472;28;20528;-65
2022/05/21 10:43:59;;;;;;;4.07;2.60;;;27.90;43.00;;;;;;5049985;28;20480;-67
2022/05/21 10:46:36;;;;;;;4.13;2.73;;;28.30;42.90;;;;;;5033792;28;20525;-66
2022/05/21 10:49:27;;;;;;;4.03;2.57;;;28.40;41.00;;;;;;5048530;28;20540;-66
2022/05/21 10:52:01;;;;;;;6.63;2.83;;;28.50;41.70;;;;;;5048457;28;20435;-65
2022/05/21 10:54:52;;;;;;;4.47;3.27;;;28.50;38.00;;;;;;5045834;28;20476;-67
2022/05/21 10:57:48;;;;;;;3.20;2.43;;;28.40;40.30;;;;;;5047583;28;20436;-71
2022/05/21 11:00:19;;;;;;;5.50;2.90;;;28.50;40.40;;;;;;5049808;28;20436;-66
2022/05/21 11:03:14;;;;;;;4.00;2.43;;;28.50;40.70;;;;;;5049140;28;20798;-66
2022/05/21 11:06:04;;;;;;;5.20;2.50;;;28.60;40.30;;;;;;5047076;28;20450;-66
2022/05/21 11:08:43;;;;;;;6.93;2.47;;;28.50;37.70;;;;;;5045732;28;20435;-66
2022/05/21 11:11:17;;;;;;;3.40;2.53;;;28.30;38.50;;;;;;5050136;28;20440;-68
2022/05/21 11:13:55;;;;;;;5.80;3.03;;;28.30;39.40;;;;;;5048957;28;20501;-66
2022/05/21 11:16:29;;;;;;;6.33;2.83;;;28.40;39.10;;;;;;5053238;28;20435;-66
2022/05/21 11:19:00;;;;;;;4.93;2.50;;;28.40;38.60;;;;;;5053153;28;21064;-65
2022/05/21 11:21:35;;;;;;;5.57;2.47;;;28.30;39.10;;;;;;5053091;28;20442;-67
2022/05/21 11:24:06;;;;;;;5.67;2.57;;;28.20;39.90;;;;;;5053268;28;20563;-66
2022/05/21 11:26:39;;;;;;;4.27;2.20;;;28.30;40.20;;;;;;5053686;28;20448;-66
2022/05/21 11:29:13;;;;;;;5.13;2.50;;;28.30;39.50;;;;;;5052706;28;20941;-66
2022/05/21 11:37:29;;;;;;;4.83;3.10;;;28.30;38.90;;;;;;5053077;28;20447;-65
2022/05/21 11:39:57;;;;;;;4.47;2.60;;;28.20;39.50;;;;;;5053504;28;20776;-65
2022/05/21 11:42:27;;;;;;;4.57;3.20;;;28.20;40.20;;;;;;5052967;28;20482;-66
2022/05/21 11:44:56;;;;;;;3.53;2.57;;;28.10;38.80;;;;;;5053376;28;20440;-66
2022/05/21 11:47:44;;;;;;;3.83;2.43;;;28.00;38.90;;;;;;5052923;28;20448;-65
2022/05/21 11:50:24;;;;;;;6.83;3.03;;;28.00;39.30;;;;;;5052410;28;20480;-66
2022/05/21 11:53:08;;;;;;;4.17;2.57;;;28.10;39.00;;;;;;5051632;28;20433;-65
2022/05/21 11:56:03;;;;;;;4.47;2.77;;;28.10;38.80;;;;;;5050776;28;20437;-66
2022/05/21 11:59:11;;;;;;;5.13;2.77;;;28.00;38.80;;;;;;5052336;28;20444;-65
2022/05/21 12:01:53;;;;;;;6.07;3.20;;;27.90;39.30;;;;;;5026525;28;20441;-66
2022/05/21 12:04:49;;;;;;;7.83;2.70;;;27.70;39.00;;;;;;5025799;28;20476;-66
2022/05/21 12:07:46;;;;;;;3.43;2.10;;;27.50;38.70;;;;;;5047759;28;20437;-65
2022/05/21 12:10:17;;;;;;;4.07;3.03;;;27.30;38.10;;;;;;5049138;28;20765;-65
2022/05/21 12:13:13;;;;;;;4.43;2.30;;;27.20;38.60;;;;;;5051746;28;20441;-65
2022/05/21 12:15:43;;;;;;;5.13;2.60;;;27.20;39.50;;;;;;5050886;28;20448;-67
2022/05/21 12:18:42;;;;;;;3.70;2.60;;;27.20;39.00;;;;;;5048359;28;20444;-65
2022/05/21 12:21:13;;;;;;;4.47;2.87;;;27.10;39.20;;;;;;5030544;28;20448;-66
2022/05/21 12:24:02;;;;;;;3.17;2.40;;;27.10;39.60;;;;;;5046570;28;20481;-65
2022/05/21 12:26:32;;;;;;;4.73;3.00;;;27.00;40.00;;;;;;5052312;28;20957;-66
2022/05/21 12:29:11;;;;;;;4.50;2.73;;;26.90;40.00;;;;;;5052015;28;20439;-68
2022/05/21 12:31:44;;;;;;;4.27;2.90;;;26.90;40.00;;;;;;5049040;28;20494;-66
2022/05/21 12:34:39;;;;;;;4.60;2.83;;;27.00;40.40;;;;;;5051708;28;20530;-65
2022/05/21 12:37:11;;;;;;;4.10;3.27;;;27.20;41.00;;;;;;5049271;28;20442;-66
2022/05/21 12:39:51;;;;;;;4.10;2.70;;;27.40;40.40;;;;;;5047698;28;20442;-65
2022/05/21 12:42:25;;;;;;;4.40;3.10;;;27.70;39.40;;;;;;5051766;28;20796;-65
2022/05/21 12:44:52;;;;;;;6.80;2.53;;;28.00;39.90;;;;;;5048216;28;20791;-65
2022/05/21 12:47:29;;;;;;;5.17;2.57;;;28.20;38.60;;;;;;5051908;28;20607;-65
2022/05/21 12:49:56;;;;;;;3.93;2.53;;;28.30;39.70;;;;;;5051457;28;20447;-65
2022/05/21 12:52:36;;;;;;;3.60;2.97;;;28.50;40.80;;;;;;5051291;28;20448;-66
2022/05/21 12:55:25;;;;;;;5.03;3.10;;;28.70;39.30;;;;;;5050602;28;20966;-66
2022/05/21 12:57:56;;;;;;;4.73;3.03;;;28.80;38.90;;;;;;5050358;28;20455;-65
2022/05/21 13:00:25;;;;;;;5.10;2.77;;;28.80;37.90;;;;;;5047434;28;20444;-66
2022/05/21 13:02:54;;;;;;;115.90;37.30;;;28.80;37.70;;;;;;5051408;28;20484;-66
2022/05/21 13:05:25;;;;;;;32.33;10.50;;;28.80;37.70;;;;;;5051277;28;20469;-66
2022/05/21 13:07:54;;;;;;;53.63;19.37;;;28.80;38.10;;;;;;5047345;28;20848;-66
2022/05/21 13:10:25;;;;;;;57.57;18.47;;;28.80;38.60;;;;;;5050404;28;20445;-67
2022/05/21 13:12:57;;;;;;;10.57;4.33;;;28.90;39.70;;;;;;5050898;28;20441;-68
2022/05/21 13:15:29;;;;;;;5.60;3.43;;;28.90;38.60;;;;;;5047289;28;20441;-65
2022/05/21 13:18:09;;;;;;;11.80;4.47;;;28.90;37.00;;;;;;5051720;28;20449;-66
2022/05/21 13:20:41;;;;;;;11.03;4.77;;;28.90;36.20;;;;;;5051608;28;20525;-65
2022/05/21 13:23:30;;;;;;;34.23;11.37;;;28.90;37.00;;;;;;5050961;28;20475;-66
2022/05/21 13:25:57;;;;;;;33.20;11.00;;;29.10;37.80;;;;;;5047441;28;20441;-65
2022/05/21 13:28:27;;;;;;;9.40;3.60;;;29.00;37.00;;;;;;5051021;28;20829;-65
2022/05/21 13:30:55;;;;;;;5.00;3.17;;;29.00;37.00;;;;;;5050711;28;20433;-67
2022/05/21 13:33:31;;;;;;;5.93;3.43;;;29.10;37.60;;;;;;5050786;28;20939;-66